Time;durP1;ratioP1;P1;durP2;ratioP2;P2;SDS_P1;SDS_P2;PMS_P1;PMS_P2;Temp;Humidity;BMP_temperature;BMP_pressure;BME280_temperature;BME280_humidity;BME280_pressure;Samples;Min_cycle;Max_cycle;Signal;HPM_P1;HPM_P2
2021/05/17 00:00:46;;;;;;;1.67;0.90;;;12.90;90.00;;;;;;5015834;28;20328;-87
2021/05/17 00:03:13;;;;;;;1.67;0.90;;;13.00;89.70;;;;;;5004913;28;20052;-86
2021/05/17 00:05:39;;;;;;;1.83;0.90;;;12.90;89.50;;;;;;5019197;28;20038;-86
2021/05/17 00:08:05;;;;;;;2.53;1.00;;;13.00;89.60;;;;;;5018137;28;20096;-87
2021/05/17 00:10:32;;;;;;;4.38;1.23;;;13.00;89.70;;;;;;5016585;28;20321;-87
2021/05/17 00:12:58;;;;;;;1.52;1.10;;;13.00;89.80;;;;;;5008216;28;20033;-85
2021/05/17 00:15:24;;;;;;;2.45;0.80;;;13.00;89.30;;;;;;5010270;28;20688;-87
2021/05/17 00:17:51;;;;;;;1.02;0.90;;;13.00;89.60;;;;;;5015213;28;20049;-86
2021/05/17 00:20:18;;;;;;;2.20;1.00;;;13.00;89.50;;;;;;5002000;28;20301;-88
2021/05/17 00:22:44;;;;;;;2.25;0.90;;;13.00;89.90;;;;;;5027142;28;20037;-86
2021/05/17 00:25:10;;;;;;;2.47;0.68;;;13.00;89.50;;;;;;5004142;28;20053;-86
2021/05/17 00:27:36;;;;;;;2.65;0.60;;;12.90;89.90;;;;;;5013261;28;20038;-88
2021/05/17 00:30:04;;;;;;;1.25;0.90;;;13.00;89.60;;;;;;5012827;28;20441;-87
2021/05/17 00:32:29;;;;;;;1.00;0.73;;;13.00;90.00;;;;;;5044928;28;20440;-87
2021/05/17 00:34:56;;;;;;;2.42;0.80;;;13.00;89.60;;;;;;5030321;28;20044;-86
2021/05/17 00:37:22;;;;;;;1.02;0.90;;;13.00;89.50;;;;;;5010697;28;20100;-86
2021/05/17 00:39:47;;;;;;;1.27;0.88;;;13.00;90.00;;;;;;5013163;28;20326;-87
2021/05/17 00:42:13;;;;;;;2.60;1.00;;;13.00;89.80;;;;;;5013345;28;20102;-86
2021/05/17 00:44:41;;;;;;;1.42;0.80;;;13.00;90.00;;;;;;5010752;28;20044;-86
2021/05/17 00:47:15;;;;;;;1.20;0.80;;;13.00;89.90;;;;;;5000437;28;20126;-86
2021/05/17 00:49:42;;;;;;;1.30;0.80;;;13.00;90.40;;;;;;5007879;28;20300;-87
2021/05/17 00:52:09;;;;;;;1.23;0.88;;;13.00;90.70;;;;;;5010640;28;20045;-87
2021/05/17 00:54:35;;;;;;;1.73;1.05;;;12.90;91.10;;;;;;5016037;28;20099;-88
2021/05/17 00:57:01;;;;;;;1.92;1.05;;;12.90;91.60;;;;;;5010070;28;20294;-85
2021/05/17 00:59:27;;;;;;;2.03;0.95;;;12.90;92.10;;;;;;5008976;28;20453;-84
2021/05/17 01:01:53;;;;;;;2.13;0.80;;;12.90;92.40;;;;;;4999545;28;20125;-86
2021/05/17 01:04:18;;;;;;;0.80;0.80;;;12.80;92.60;;;;;;5009161;28;20077;-85
2021/05/17 01:06:48;;;;;;;2.20;0.75;;;12.70;92.70;;;;;;5009811;28;20038;-87
2021/05/17 01:09:15;;;;;;;1.17;0.70;;;12.60;92.90;;;;;;4997218;28;20042;-86
2021/05/17 01:11:41;;;;;;;1.13;0.65;;;12.70;93.10;;;;;;5014588;28;20291;-86
2021/05/17 01:14:08;;;;;;;3.45;1.10;;;12.60;93.20;;;;;;5006412;28;20069;-86
2021/05/17 01:16:34;;;;;;;1.88;0.73;;;12.60;93.30;;;;;;5011932;28;20038;-85
2021/05/17 01:19:01;;;;;;;1.42;1.15;;;12.60;93.30;;;;;;5011188;28;20042;-87
2021/05/17 01:21:33;;;;;;;4.93;1.00;;;12.60;93.30;;;;;;5018088;28;20065;-86
2021/05/17 01:23:59;;;;;;;3.08;0.95;;;12.60;93.60;;;;;;5002915;28;20042;-85
2021/05/17 01:26:27;;;;;;;1.48;0.93;;;12.60;93.70;;;;;;5009705;28;20029;-84
2021/05/17 01:28:56;;;;;;;1.75;0.82;;;12.50;93.80;;;;;;5013142;28;20468;-87
2021/05/17 01:31:23;;;;;;;1.83;0.93;;;12.50;93.70;;;;;;5010547;28;20046;-86
2021/05/17 01:33:49;;;;;;;2.28;0.60;;;12.50;94.00;;;;;;5006074;28;20031;-86
2021/05/17 01:36:16;;;;;;;3.10;1.08;;;12.50;93.90;;;;;;5010701;28;20038;-85
2021/05/17 01:38:44;;;;;;;1.50;0.70;;;12.60;93.90;;;;;;5001104;28;20053;-85
2021/05/17 01:41:12;;;;;;;1.40;0.80;;;12.50;93.90;;;;;;4998634;28;20053;-86
2021/05/17 01:43:44;;;;;;;1.35;0.75;;;12.50;94.00;;;;;;5007984;28;20058;-85
2021/05/17 01:46:14;;;;;;;4.10;0.90;;;12.60;94.10;;;;;;5003486;28;20045;-86
2021/05/17 01:48:41;;;;;;;2.50;0.93;;;12.60;94.10;;;;;;5019577;28;20149;-87
2021/05/17 01:51:09;;;;;;;5.82;1.27;;;12.60;94.10;;;;;;5002150;28;20062;-86
2021/05/17 01:53:36;;;;;;;1.20;0.80;;;12.60;94.10;;;;;;4999929;28;20045;-86
2021/05/17 01:56:06;;;;;;;0.93;0.80;;;12.60;94.10;;;;;;5012605;28;20069;-87
2021/05/17 01:58:32;;;;;;;0.93;0.52;;;12.60;94.10;;;;;;5004455;28;20057;-85
2021/05/17 02:00:59;;;;;;;0.95;0.68;;;12.60;94.20;;;;;;5010882;28;20033;-86
2021/05/17 02:03:25;;;;;;;2.30;0.80;;;12.60;94.30;;;;;;5007932;28;20127;-85
2021/05/17 02:05:52;;;;;;;2.95;0.82;;;12.60;94.40;;;;;;5005254;28;20038;-85
2021/05/17 02:08:18;;;;;;;0.80;0.80;;;12.70;94.30;;;;;;5013194;28;20038;-86
2021/05/17 02:10:45;;;;;;;1.02;0.80;;;12.70;94.40;;;;;;5026065;28;20057;-87
2021/05/17 02:13:18;;;;;;;2.15;0.70;;;12.70;94.50;;;;;;5011936;28;20108;-85
2021/05/17 02:15:45;;;;;;;4.30;0.90;;;12.70;94.50;;;;;;5007974;28;20081;-86
2021/05/17 02:18:11;;;;;;;1.20;0.98;;;12.70;94.40;;;;;;5009244;28;20425;-85
2021/05/17 02:20:38;;;;;;;1.20;0.75;;;12.70;94.30;;;;;;5008636;28;20126;-85
2021/05/17 02:23:05;;;;;;;1.80;0.88;;;12.70;94.40;;;;;;4997158;28;20046;-85
2021/05/17 02:25:31;;;;;;;1.27;0.77;;;12.70;94.30;;;;;;5008828;28;20034;-85
2021/05/17 02:27:57;;;;;;;1.73;0.80;;;12.70;94.30;;;;;;5000682;28;20037;-85
2021/05/17 02:30:24;;;;;;;1.65;0.80;;;12.70;94.30;;;;;;5011391;28;20042;-85
2021/05/17 02:32:51;;;;;;;2.78;0.80;;;12.70;94.40;;;;;;5014971;28;21432;-85
2021/05/17 02:35:19;;;;;;;1.13;0.70;;;12.60;94.30;;;;;;5016336;28;20297;-85
2021/05/17 02:37:45;;;;;;;4.68;0.73;;;12.70;94.40;;;;;;5033676;28;20088;-85
2021/05/17 02:40:11;;;;;;;0.85;0.70;;;12.60;94.40;;;;;;5024416;28;20039;-84
2021/05/17 02:42:37;;;;;;;3.03;0.93;;;12.50;94.40;;;;;;5003821;28;20101;-85
2021/05/17 02:45:05;;;;;;;1.90;1.23;;;12.50;94.50;;;;;;5000052;28;20128;-86
2021/05/17 02:47:35;;;;;;;1.70;1.10;;;12.50;94.50;;;;;;5000989;28;20044;-86
2021/05/17 02:50:01;;;;;;;1.98;0.80;;;12.50;94.50;;;;;;4997898;28;20040;-84
2021/05/17 02:52:31;;;;;;;1.55;1.00;;;12.40;94.50;;;;;;5012326;28;20042;-86
2021/05/17 02:55:10;;;;;;;1.30;1.00;;;12.40;94.50;;;;;;5007756;28;20037;-86
2021/05/17 02:57:44;;;;;;;3.03;1.15;;;12.30;94.60;;;;;;5005619;28;20044;-86
2021/05/17 03:00:12;;;;;;;1.23;0.80;;;12.20;94.70;;;;;;5012118;28;20061;-86
2021/05/17 03:03:05;;;;;;;1.80;0.93;;;12.20;94.80;;;;;;5017533;28;20044;-86
2021/05/17 03:05:38;;;;;;;1.40;1.10;;;12.10;94.80;;;;;;5015420;28;20464;-86
2021/05/17 03:08:05;;;;;;;3.30;1.30;;;12.10;94.80;;;;;;5003599;28;20046;-87
2021/05/17 03:10:34;;;;;;;2.40;1.10;;;12.00;94.90;;;;;;5022575;28;20046;-86
2021/05/17 03:13:17;;;;;;;2.03;1.15;;;12.00;94.90;;;;;;5018316;28;20042;-86
2021/05/17 03:15:44;;;;;;;6.97;1.50;;;11.90;95.10;;;;;;5007407;28;20050;-86
2021/05/17 03:18:10;;;;;;;1.88;1.33;;;11.90;95.30;;;;;;5006673;28;20034;-86
2021/05/17 03:20:38;;;;;;;2.08;0.90;;;11.90;95.40;;;;;;5015303;28;20088;-84
2021/05/17 03:23:10;;;;;;;1.60;0.98;;;11.80;95.50;;;;;;5003133;28;20311;-85
2021/05/17 03:25:37;;;;;;;;;;;11.90;95.50;;;;;;5010394;28;20043;-86
2021/05/17 03:28:02;;;;;;;1.55;0.95;;;11.90;95.30;;;;;;5000745;28;20314;-84
2021/05/17 03:30:28;;;;;;;1.20;1.10;;;11.80;95.40;;;;;;5015394;28;20121;-86
2021/05/17 03:32:54;;;;;;;1.30;0.93;;;11.80;95.50;;;;;;5013420;28;20050;-86
2021/05/17 03:35:19;;;;;;;2.28;0.90;;;11.70;95.60;;;;;;5009117;28;20041;-85
2021/05/17 03:37:47;;;;;;;2.65;1.23;;;11.70;95.60;;;;;;4999921;28;20419;-86
2021/05/17 03:40:14;;;;;;;1.38;1.00;;;11.70;95.70;;;;;;5001555;28;20073;-86
2021/05/17 03:42:39;;;;;;;2.30;1.17;;;11.70;95.70;;;;;;5000509;28;20053;-85
2021/05/17 03:45:07;;;;;;;6.72;1.05;;;11.80;95.80;;;;;;5014116;28;20042;-85
2021/05/17 03:47:33;;;;;;;2.38;1.05;;;11.80;95.70;;;;;;5015928;28;20034;-85
2021/05/17 03:49:59;;;;;;;4.40;1.30;;;11.80;95.70;;;;;;5027195;28;20133;-85
2021/05/17 03:52:25;;;;;;;2.95;1.48;;;11.80;95.70;;;;;;5008614;28;20060;-83
2021/05/17 03:54:50;;;;;;;2.22;1.00;;;11.90;95.70;;;;;;5016043;28;20034;-85
2021/05/17 03:57:16;;;;;;;4.15;0.90;;;11.90;95.50;;;;;;5005903;28;20103;-85
2021/05/17 03:59:45;;;;;;;1.60;0.90;;;11.90;95.50;;;;;;5005890;28;20038;-85
2021/05/17 04:02:15;;;;;;;1.92;0.90;;;12.00;95.50;;;;;;5014329;28;20034;-86
2021/05/17 04:04:48;;;;;;;5.03;1.80;;;11.90;95.40;;;;;;5004609;28;20096;-85
2021/05/17 04:15:16;;;;;;;1.58;0.80;;;12.10;94.80;;;;;;5014366;28;20092;-87
2021/05/17 04:17:42;;;;;;;0.55;0.45;;;12.20;94.70;;;;;;5011830;28;20041;-86
2021/05/17 04:20:08;;;;;;;2.53;0.85;;;12.20;94.60;;;;;;5008719;28;20081;-85
2021/05/17 04:22:34;;;;;;;2.13;0.90;;;12.30;94.70;;;;;;5012431;28;20042;-85
2021/05/17 04:24:59;;;;;;;1.20;0.90;;;12.30;94.50;;;;;;5033848;28;20049;-85
2021/05/17 04:27:25;;;;;;;1.60;0.70;;;12.30;94.50;;;;;;5015108;28;20100;-86
2021/05/17 04:29:50;;;;;;;2.00;0.70;;;12.30;94.30;;;;;;5014025;28;20050;-85
2021/05/17 04:32:16;;;;;;;0.77;0.60;;;12.20;94.00;;;;;;5008266;28;20046;-85
2021/05/17 04:34:41;;;;;;;3.40;1.67;;;12.20;94.10;;;;;;5013590;28;20049;-84
2021/05/17 04:37:09;;;;;;;1.50;1.05;;;12.20;94.10;;;;;;5019644;28;20038;-85
2021/05/17 04:39:35;;;;;;;0.75;0.75;;;12.10;94.20;;;;;;5021813;28;20037;-85
2021/05/17 04:42:00;;;;;;;4.68;1.00;;;12.00;94.10;;;;;;5014812;28;20399;-84
2021/05/17 04:44:26;;;;;;;1.73;0.68;;;11.90;94.50;;;;;;5013098;28;20048;-84
2021/05/17 04:46:52;;;;;;;2.67;0.73;;;11.90;94.50;;;;;;5011333;28;20046;-85
2021/05/17 04:49:18;;;;;;;1.60;1.08;;;11.90;94.50;;;;;;5007226;28;20432;-85
2021/05/17 04:51:43;;;;;;;0.77;0.60;;;11.90;94.30;;;;;;5012893;28;20112;-84
2021/05/17 04:54:09;;;;;;;0.80;0.80;;;11.80;94.60;;;;;;5004717;28;20053;-84
2021/05/17 04:56:35;;;;;;;1.95;0.70;;;11.80;94.50;;;;;;5013087;28;20049;-86
2021/05/17 04:59:00;;;;;;;0.63;0.60;;;11.80;94.40;;;;;;5012155;28;20042;-86
2021/05/17 05:01:26;;;;;;;5.85;0.70;;;11.70;94.40;;;;;;5032512;28;20096;-86
2021/05/17 05:03:51;;;;;;;3.03;1.13;;;11.70;94.70;;;;;;5018223;28;20053;-86
2021/05/17 05:06:17;;;;;;;2.60;0.95;;;11.70;94.70;;;;;;5008313;28;20049;-85
2021/05/17 05:08:42;;;;;;;2.35;0.70;;;11.80;94.60;;;;;;5009920;28;20037;-85
2021/05/17 05:11:08;;;;;;;1.17;1.00;;;11.80;94.50;;;;;;5011522;28;20124;-85
2021/05/17 05:13:33;;;;;;;1.90;0.88;;;11.80;94.30;;;;;;5008644;28;20072;-85
2021/05/17 05:15:59;;;;;;;0.60;0.57;;;11.80;94.20;;;;;;5007922;28;20445;-86
2021/05/17 05:18:25;;;;;;;1.85;0.70;;;11.90;94.10;;;;;;5004921;28;20038;-86
2021/05/17 05:20:50;;;;;;;2.22;0.82;;;11.90;93.90;;;;;;5010577;28;20080;-86
2021/05/17 05:23:17;;;;;;;0.63;0.63;;;11.90;94.00;;;;;;5011194;28;20030;-86
2021/05/17 05:31:21;;;;;;;1.23;1.13;;;11.90;94.00;;;;;;5012229;28;20502;-84
2021/05/17 05:33:46;;;;;;;1.48;0.90;;;11.90;94.10;;;;;;5012221;28;20124;-84
2021/05/17 05:36:12;;;;;;;1.45;0.75;;;11.90;94.00;;;;;;5011794;28;20706;-84
2021/05/17 05:38:37;;;;;;;0.93;0.60;;;11.80;94.00;;;;;;5010088;28;20039;-84
2021/05/17 05:41:03;;;;;;;0.80;0.70;;;11.80;94.10;;;;;;5012828;28;20048;-84
2021/05/17 05:43:28;;;;;;;1.63;0.90;;;11.90;93.90;;;;;;5006485;28;20041;-85
2021/05/17 05:45:54;;;;;;;0.73;0.60;;;12.00;93.90;;;;;;5010022;28;20053;-83
2021/05/17 05:48:19;;;;;;;1.10;0.60;;;12.00;93.60;;;;;;5009252;28;20283;-84
2021/05/17 05:50:46;;;;;;;2.15;0.85;;;12.20;93.60;;;;;;5023983;28;20045;-85
2021/05/17 05:53:13;;;;;;;0.85;0.63;;;12.10;93.40;;;;;;5009249;28;20050;-85
2021/05/17 05:55:39;;;;;;;1.17;0.82;;;12.10;93.50;;;;;;5011975;28;20057;-84
2021/05/17 05:58:04;;;;;;;1.20;0.90;;;12.20;93.40;;;;;;5012337;28;20042;-85
2021/05/17 06:00:30;;;;;;;1.48;0.70;;;12.20;93.40;;;;;;5008293;28;20085;-84
2021/05/17 06:03:00;;;;;;;0.93;0.68;;;12.30;93.30;;;;;;5010163;28;20057;-84
2021/05/17 06:05:27;;;;;;;1.05;0.82;;;12.40;93.00;;;;;;5006575;28;20124;-85
2021/05/17 06:07:53;;;;;;;2.15;0.70;;;12.40;92.90;;;;;;5009753;28;20440;-84
2021/05/17 06:10:19;;;;;;;4.03;0.70;;;12.50;92.60;;;;;;5011960;28;20072;-85
2021/05/17 06:12:48;;;;;;;2.38;0.70;;;12.50;92.50;;;;;;5010629;28;20085;-84
2021/05/17 06:15:15;;;;;;;2.05;0.80;;;12.50;92.20;;;;;;5010703;28;20301;-85
2021/05/17 06:17:42;;;;;;;0.82;0.60;;;12.60;92.40;;;;;;5009998;28;20056;-84
2021/05/17 06:20:09;;;;;;;1.60;0.63;;;12.70;91.90;;;;;;5011232;28;20104;-85
2021/05/17 06:22:37;;;;;;;1.45;0.68;;;12.70;91.80;;;;;;5001554;28;20046;-84
2021/05/17 06:25:08;;;;;;;3.63;0.60;;;12.70;91.90;;;;;;5006062;28;20042;-84
2021/05/17 06:27:35;;;;;;;1.30;0.50;;;12.80;91.80;;;;;;5002585;28;20030;-85
2021/05/17 06:30:00;;;;;;;1.40;0.73;;;12.80;91.70;;;;;;5006889;28;20038;-84
2021/05/17 06:32:28;;;;;;;0.75;0.60;;;12.80;91.80;;;;;;5019604;28;20038;-84
2021/05/17 06:34:55;;;;;;;1.10;0.80;;;12.80;91.30;;;;;;5001369;28;20038;-83
2021/05/17 06:37:20;;;;;;;0.98;0.50;;;12.80;91.40;;;;;;5003552;28;20050;-84
2021/05/17 06:39:46;;;;;;;0.98;0.75;;;12.90;91.30;;;;;;5023771;28;20073;-84
2021/05/17 06:42:13;;;;;;;1.23;0.90;;;13.00;91.10;;;;;;5015748;28;20034;-84
2021/05/17 06:44:39;;;;;;;3.40;0.98;;;13.10;91.00;;;;;;5004078;28;20271;-84
2021/05/17 06:47:06;;;;;;;3.53;0.75;;;13.20;91.00;;;;;;5011896;28;20041;-85
2021/05/17 06:49:31;;;;;;;0.90;0.50;;;13.20;90.90;;;;;;5007336;28;20052;-84
2021/05/17 06:51:59;;;;;;;2.63;0.85;;;13.40;90.80;;;;;;5009045;28;20046;-83
2021/05/17 06:54:27;;;;;;;1.52;0.75;;;13.40;90.30;;;;;;5007314;28;20041;-83
2021/05/17 06:59:48;;;;;;;3.42;1.02;;;13.60;90.00;;;;;;5010950;28;20063;-84
2021/05/17 07:02:24;;;;;;;1.25;0.90;;;13.70;90.30;;;;;;5019575;28;20075;-85
2021/05/17 07:04:56;;;;;;;1.17;0.60;;;13.70;89.00;;;;;;5012176;28;20050;-84
2021/05/17 07:07:31;;;;;;;1.05;0.60;;;13.80;87.90;;;;;;5018755;28;20507;-85
2021/05/17 07:12:41;;;;;;;3.10;0.90;;;14.00;88.30;;;;;;5007667;28;20069;-85
2021/05/17 07:15:07;;;;;;;0.73;0.55;;;14.10;87.90;;;;;;5014981;28;20037;-84
2021/05/17 07:17:33;;;;;;;2.38;0.90;;;14.30;86.90;;;;;;5020587;28;20451;-82
2021/05/17 07:19:58;;;;;;;1.70;0.70;;;14.30;87.00;;;;;;5018994;28;20049;-85
2021/05/17 07:25:09;;;;;;;3.63;0.85;;;14.50;86.80;;;;;;5013297;28;20048;-85
2021/05/17 07:27:35;;;;;;;1.35;1.00;;;14.60;86.80;;;;;;5006896;28;20704;-84
2021/05/17 07:30:00;;;;;;;1.25;0.82;;;14.70;85.50;;;;;;5001367;28;20046;-85
2021/05/17 07:32:26;;;;;;;3.58;1.88;;;14.70;86.30;;;;;;5013625;28;20045;-84
2021/05/17 07:34:51;;;;;;;1.25;1.08;;;14.80;85.80;;;;;;5014274;28;20050;-84
2021/05/17 07:37:17;;;;;;;2.63;2.42;;;14.90;84.80;;;;;;5009728;28;20038;-84
2021/05/17 07:39:42;;;;;;;3.95;1.05;;;14.90;84.80;;;;;;5003289;28;20289;-84
2021/05/17 07:42:09;;;;;;;1.95;1.02;;;14.90;85.00;;;;;;5003710;28;20050;-84
2021/05/17 07:44:35;;;;;;;0.77;0.70;;;14.90;84.90;;;;;;5011517;28;20042;-84
2021/05/17 07:47:01;;;;;;;1.20;0.70;;;15.00;85.10;;;;;;5010148;28;20038;-85
2021/05/17 07:49:52;;;;;;;0.93;0.70;;;15.20;86.40;;;;;;5013301;28;20042;-84
2021/05/17 07:52:14;;;;;;;3.47;1.10;;;15.40;83.60;;;;;;5014811;28;20128;-86
2021/05/17 07:54:40;;;;;;;2.17;0.70;;;15.60;83.60;;;;;;5016178;28;20072;-87
2021/05/17 07:57:06;;;;;;;5.90;0.90;;;15.70;83.60;;;;;;5019037;28;20096;-85
2021/05/17 07:59:32;;;;;;;1.15;0.68;;;15.90;82.70;;;;;;5020729;28;20045;-86
2021/05/17 08:01:58;;;;;;;3.95;0.95;;;15.90;83.20;;;;;;5010986;28;20084;-84
2021/05/17 08:04:24;;;;;;;4.45;0.70;;;16.10;80.50;;;;;;5008366;28;20065;-85
2021/05/17 08:06:53;;;;;;;1.52;0.75;;;16.20;81.50;;;;;;5017800;28;20309;-85
2021/05/17 08:09:19;;;;;;;4.57;0.70;;;16.20;80.90;;;;;;5002238;28;20042;-86
2021/05/17 08:11:46;;;;;;;2.00;0.60;;;16.30;80.40;;;;;;5015882;28;20107;-86
2021/05/17 08:14:12;;;;;;;1.33;0.70;;;16.40;81.90;;;;;;5010801;28;20034;-86
2021/05/17 08:16:38;;;;;;;1.15;0.80;;;16.60;80.50;;;;;;5015063;28;20033;-85
2021/05/17 08:19:04;;;;;;;1.65;0.60;;;16.80;79.50;;;;;;5013927;28;20077;-85
2021/05/17 08:21:31;;;;;;;1.45;0.70;;;16.80;77.50;;;;;;4998758;28;20034;-85
2021/05/17 08:23:58;;;;;;;1.02;0.70;;;16.90;76.90;;;;;;5011462;28;20462;-86
2021/05/17 08:26:24;;;;;;;1.55;0.90;;;16.80;77.80;;;;;;5012201;28;20045;-86
2021/05/17 08:28:50;;;;;;;2.70;0.82;;;16.80;77.40;;;;;;5025116;28;20066;-84
2021/05/17 08:31:18;;;;;;;1.77;0.55;;;16.90;78.70;;;;;;5028598;28;20554;-86
2021/05/17 08:33:45;;;;;;;1.85;0.57;;;16.90;79.70;;;;;;5017564;28;20037;-86
2021/05/17 08:36:10;;;;;;;2.05;0.75;;;17.00;77.30;;;;;;5020330;28;20042;-85
2021/05/17 08:38:36;;;;;;;2.25;0.60;;;17.20;77.30;;;;;;5014614;28;20069;-84
2021/05/17 08:41:03;;;;;;;1.85;0.60;;;17.40;76.60;;;;;;5012107;28;20035;-84
2021/05/17 08:43:30;;;;;;;0.82;0.50;;;17.40;77.90;;;;;;5010685;28;20038;-85
2021/05/17 08:45:56;;;;;;;2.30;0.60;;;17.40;75.10;;;;;;5006954;28;20402;-86
2021/05/17 08:48:23;;;;;;;3.95;0.50;;;17.40;77.10;;;;;;5011357;28;20065;-85
2021/05/17 08:50:49;;;;;;;2.40;0.82;;;17.50;75.60;;;;;;5010888;28;20406;-85
2021/05/17 08:53:15;;;;;;;1.67;0.90;;;17.60;76.60;;;;;;5011984;28;20169;-84
2021/05/17 08:55:41;;;;;;;2.55;1.15;;;17.80;73.60;;;;;;5009058;28;20117;-85
2021/05/17 08:58:07;;;;;;;0.90;0.80;;;18.00;74.20;;;;;;5007221;28;20745;-88
2021/05/17 09:00:33;;;;;;;2.63;0.85;;;18.10;74.20;;;;;;5010085;28;20060;-85
2021/05/17 09:02:59;;;;;;;2.05;0.70;;;18.40;72.00;;;;;;4996749;28;20145;-85
2021/05/17 09:05:29;;;;;;;1.67;0.60;;;18.50;73.00;;;;;;5017484;28;20045;-85
2021/05/17 09:08:01;;;;;;;4.10;0.82;;;18.40;72.20;;;;;;5010830;28;20645;-85
2021/05/17 09:10:34;;;;;;;3.40;0.70;;;18.50;74.00;;;;;;5001276;28;20397;-86
2021/05/17 09:13:06;;;;;;;2.00;0.60;;;18.60;71.60;;;;;;5007150;28;20043;-85
2021/05/17 09:15:53;;;;;;;0.90;0.70;;;18.70;71.80;;;;;;5011507;28;20389;-86
2021/05/17 09:18:22;;;;;;;0.82;0.55;;;18.70;69.50;;;;;;5009318;28;20405;-86
2021/05/17 09:20:50;;;;;;;3.85;0.90;;;18.50;70.00;;;;;;4993893;28;20048;-84
2021/05/17 09:23:26;;;;;;;2.92;0.52;;;18.40;71.50;;;;;;5024998;28;20045;-86
2021/05/17 09:26:02;;;;;;;2.88;0.75;;;18.40;72.40;;;;;;5012033;28;20055;-84
2021/05/17 09:28:36;;;;;;;3.05;0.88;;;18.50;69.90;;;;;;5010351;28;20481;-86
2021/05/17 09:31:07;;;;;;;2.92;1.40;;;18.60;70.50;;;;;;5010627;28;20049;-85
2021/05/17 09:33:48;;;;;;;3.47;0.90;;;18.40;66.80;;;;;;5011815;28;20345;-85
2021/05/17 09:36:44;;;;;;;2.20;1.00;;;18.40;69.70;;;;;;5012355;28;20037;-86
2021/05/17 09:39:17;;;;;;;3.95;0.68;;;18.40;71.20;;;;;;5011972;28;20105;-86
2021/05/17 09:41:55;;;;;;;2.90;0.70;;;18.60;71.20;;;;;;5003015;28;20136;-83
2021/05/17 09:44:28;;;;;;;2.72;0.80;;;18.70;69.70;;;;;;5012995;28;20069;-86
2021/05/17 09:47:13;;;;;;;1.25;0.47;;;18.80;68.40;;;;;;5000357;28;20041;-84
2021/05/17 09:49:46;;;;;;;2.88;0.88;;;18.80;66.20;;;;;;5007264;28;20038;-87
2021/05/17 09:52:29;;;;;;;2.13;0.75;;;18.80;70.40;;;;;;5003419;28;20501;-84
2021/05/17 09:55:09;;;;;;;3.13;0.80;;;18.90;66.60;;;;;;5006703;28;20598;-85
2021/05/17 09:57:40;;;;;;;3.45;0.82;;;18.80;68.10;;;;;;5002970;28;20050;-84
2021/05/17 10:00:22;;;;;;;2.58;0.98;;;18.80;70.10;;;;;;5011572;28;20034;-83
2021/05/17 10:02:53;;;;;;;2.55;0.70;;;18.90;69.20;;;;;;5009990;28;20137;-84
2021/05/17 10:05:31;;;;;;;2.53;0.50;;;19.00;66.70;;;;;;5001742;28;20053;-83
2021/05/17 10:08:09;;;;;;;2.17;0.70;;;19.10;66.30;;;;;;4998861;28;20042;-82
2021/05/17 10:10:35;;;;;;;4.53;0.82;;;19.30;68.10;;;;;;4998944;28;20044;-83
2021/05/17 10:13:03;;;;;;;1.45;0.50;;;19.40;64.80;;;;;;5011490;28;20472;-83
2021/05/17 10:15:30;;;;;;;1.38;0.57;;;19.50;67.10;;;;;;5014342;28;20053;-83
2021/05/17 10:17:58;;;;;;;1.83;0.60;;;19.60;68.30;;;;;;4997723;28;20054;-84
2021/05/17 10:20:25;;;;;;;2.60;1.02;;;19.60;64.90;;;;;;5009144;28;20091;-85
2021/05/17 10:22:52;;;;;;;2.58;0.60;;;19.50;64.90;;;;;;5012411;28;20042;-84
2021/05/17 10:25:23;;;;;;;1.52;0.57;;;19.40;66.10;;;;;;5008541;28;20393;-84
2021/05/17 10:27:51;;;;;;;1.98;0.65;;;19.40;65.80;;;;;;4997483;28;20045;-85
2021/05/17 10:30:32;;;;;;;3.47;0.70;;;19.30;66.40;;;;;;5013870;28;20075;-85
2021/05/17 10:33:08;;;;;;;1.33;0.52;;;19.10;68.00;;;;;;5004497;28;20049;-80
2021/05/17 10:35:48;;;;;;;2.85;0.70;;;19.00;69.00;;;;;;4997229;28;20464;-78
2021/05/17 10:38:21;;;;;;;0.57;0.35;;;19.00;70.30;;;;;;5004432;28;20061;-79
2021/05/17 10:40:52;;;;;;;1.75;0.63;;;19.10;69.40;;;;;;5015301;28;20690;-79
2021/05/17 10:43:49;;;;;;;2.85;0.70;;;19.20;68.10;;;;;;5011831;28;20397;-78
2021/05/17 10:49:23;;;;;;;1.42;0.60;;;19.40;70.10;;;;;;5002726;28;20066;-80
2021/05/17 10:51:52;;;;;;;3.40;0.77;;;19.60;67.00;;;;;;5013202;28;20046;-81
2021/05/17 10:54:44;;;;;;;2.85;0.63;;;19.60;66.10;;;;;;5013955;28;20357;-78
2021/05/17 10:57:32;;;;;;;1.02;0.30;;;19.60;66.50;;;;;;5011523;28;20046;-79
2021/05/17 11:02:44;;;;;;;2.33;0.50;;;19.70;67.40;;;;;;5003033;28;20053;-79
2021/05/17 11:05:15;;;;;;;1.73;0.73;;;19.60;68.60;;;;;;5006478;28;20057;-77
2021/05/17 11:07:51;;;;;;;2.80;1.20;;;19.50;67.00;;;;;;5011095;28;20275;-78
2021/05/17 11:10:24;;;;;;;28.00;3.60;;;19.40;67.30;;;;;;5012877;28;20417;-79
2021/05/17 11:12:57;;;;;;;2.00;0.55;;;19.10;69.50;;;;;;5012037;28;20050;-78
2021/05/17 11:15:25;;;;;;;1.88;0.90;;;18.90;68.60;;;;;;5013475;28;20056;-78
2021/05/17 11:18:04;;;;;;;2.38;0.50;;;18.70;69.30;;;;;;5015888;28;20125;-77
2021/05/17 11:20:43;;;;;;;1.08;0.55;;;18.60;72.30;;;;;;5005401;28;20126;-79
2021/05/17 11:23:25;;;;;;;0.47;0.40;;;18.60;72.30;;;;;;4996354;28;20041;-79
2021/05/17 11:26:00;;;;;;;1.33;0.53;;;18.60;70.70;;;;;;5015390;28;20069;-76
2021/05/17 11:28:35;;;;;;;1.50;0.90;;;18.60;69.90;;;;;;5011232;28;20315;-79
2021/05/17 11:31:06;;;;;;;3.30;0.80;;;18.70;68.00;;;;;;5005602;28;20312;-79
2021/05/17 11:33:55;;;;;;;1.40;0.65;;;18.80;67.90;;;;;;5020680;28;20392;-77
2021/05/17 11:36:25;;;;;;;2.75;0.50;;;19.00;67.40;;;;;;5008986;28;20082;-77
2021/05/17 11:39:18;;;;;;;1.92;0.50;;;19.10;69.90;;;;;;5008538;28;20393;-76
2021/05/17 11:41:58;;;;;;;0.55;0.40;;;19.30;69.30;;;;;;5011709;28;20402;-76
2021/05/17 11:44:31;;;;;;;0.68;0.50;;;19.40;68.20;;;;;;5020964;28;20045;-78
2021/05/17 11:46:59;;;;;;;2.95;0.40;;;19.70;66.20;;;;;;5014713;28;20037;-78
2021/05/17 11:49:27;;;;;;;1.33;0.40;;;19.90;66.30;;;;;;5013662;28;20132;-77
2021/05/17 11:52:07;;;;;;;2.35;0.60;;;20.00;65.40;;;;;;4995814;28;20453;-77
2021/05/17 11:54:36;;;;;;;0.30;0.30;;;20.10;65.80;;;;;;5007553;28;20137;-77
2021/05/17 11:57:03;;;;;;;0.70;0.40;;;20.30;69.30;;;;;;5007413;28;20037;-76
2021/05/17 11:59:29;;;;;;;0.82;0.30;;;20.30;64.40;;;;;;5007687;28;20042;-76
2021/05/17 12:01:58;;;;;;;0.85;0.40;;;20.30;64.80;;;;;;5013256;28;20549;-76
2021/05/17 12:04:33;;;;;;;0.50;0.20;;;20.50;62.80;;;;;;5010317;28;20045;-77
2021/05/17 12:07:01;;;;;;;0.22;0.22;;;20.70;63.60;;;;;;5009449;28;20037;-76
2021/05/17 12:09:32;;;;;;;0.47;0.28;;;20.90;65.70;;;;;;4996564;28;20081;-78
2021/05/17 12:12:08;;;;;;;1.20;0.40;;;20.90;64.00;;;;;;5007871;28;20495;-78
2021/05/17 12:14:36;;;;;;;0.85;0.43;;;20.90;64.00;;;;;;5010571;28;20035;-76
2021/05/17 12:17:10;;;;;;;1.55;0.38;;;20.90;62.80;;;;;;4999815;28;20084;-77
2021/05/17 12:19:37;;;;;;;1.40;0.63;;;20.90;62.10;;;;;;5005416;28;20033;-77
2021/05/17 12:22:05;;;;;;;0.30;0.30;;;21.00;62.50;;;;;;5003297;28;20056;-77
2021/05/17 12:24:31;;;;;;;0.55;0.38;;;21.10;61.40;;;;;;5010943;28;20157;-78
2021/05/17 12:27:00;;;;;;;0.40;0.20;;;21.20;61.10;;;;;;5003115;28;20117;-77
2021/05/17 12:29:28;;;;;;;0.28;0.28;;;21.30;61.60;;;;;;5013367;28;20091;-77
2021/05/17 12:32:08;;;;;;;0.88;0.30;;;21.20;58.50;;;;;;5012127;28;20123;-76
2021/05/17 12:34:34;;;;;;;0.93;0.68;;;21.10;60.80;;;;;;5006725;28;20046;-77
2021/05/17 12:37:00;;;;;;;0.60;0.30;;;21.10;61.60;;;;;;5007153;28;20034;-78
2021/05/17 12:39:25;;;;;;;0.60;0.30;;;21.10;59.50;;;;;;5006450;28;20325;-77
2021/05/17 12:41:51;;;;;;;0.40;0.30;;;20.90;59.60;;;;;;5010424;28;20045;-77
2021/05/17 12:44:35;;;;;;;0.70;0.50;;;20.70;59.40;;;;;;5008911;28;20048;-77
2021/05/17 12:47:05;;;;;;;0.63;0.40;;;20.40;61.30;;;;;;5015012;28;20121;-77
2021/05/17 12:49:53;;;;;;;0.77;0.40;;;20.20;62.00;;;;;;5013265;28;20579;-78
2021/05/17 12:52:26;;;;;;;0.60;0.40;;;20.10;62.50;;;;;;4997262;28;20049;-78
2021/05/17 12:55:18;;;;;;;1.10;0.43;;;20.00;64.20;;;;;;5000863;28;20302;-77
2021/05/17 12:57:50;;;;;;;1.92;0.38;;;19.90;64.00;;;;;;5012753;28;20042;-78
2021/05/17 13:00:32;;;;;;;5.15;0.73;;;19.90;66.10;;;;;;5013283;28;20045;-77
2021/05/17 13:03:12;;;;;;;23.13;1.80;;;20.00;66.00;;;;;;5008571;28;20100;-76
2021/05/17 13:05:52;;;;;;;2.65;0.45;;;20.10;62.50;;;;;;5004011;28;20038;-77
2021/05/17 13:08:18;;;;;;;3.30;0.40;;;20.30;63.60;;;;;;4998456;28;20045;-77
2021/05/17 13:10:55;;;;;;;1.83;0.22;;;20.50;62.50;;;;;;5010542;28;20045;-77
2021/05/17 13:13:37;;;;;;;0.35;0.30;;;20.60;61.20;;;;;;4999183;28;20076;-78
2021/05/17 13:16:03;;;;;;;0.63;0.30;;;20.80;61.10;;;;;;5005216;28;20168;-77
2021/05/17 13:19:01;;;;;;;0.30;0.30;;;21.00;60.50;;;;;;5014370;28;20120;-77
2021/05/17 13:21:38;;;;;;;0.40;0.30;;;21.20;60.40;;;;;;5013706;28;20026;-77
2021/05/17 13:30:07;;;;;;;0.47;0.30;;;20.70;59.20;;;;;;5004315;28;20048;-78
2021/05/17 13:32:39;;;;;;;0.30;0.30;;;20.40;61.20;;;;;;4999535;28;20416;-79